sensor_id;sensor_type;location;lat;lon;timestamp;temperature;humidity
2749;DHT22;1382;52.142;11.618;2023-05-10T00:02:13;18.90;35.70
2749;DHT22;1382;52.142;11.618;2023-05-10T00:04:40;18.80;35.60
2749;DHT22;1382;52.142;11.618;2023-05-10T00:07:06;18.80;35.60
2749;DHT22;1382;52.142;11.618;2023-05-10T00:09:33;18.80;35.70
2749;DHT22;1382;52.142;11.618;2023-05-10T00:12:01;18.70;35.70
2749;DHT22;1382;52.142;11.618;2023-05-10T00:14:28;18.70;35.70
2749;DHT22;1382;52.142;11.618;2023-05-10T00:16:54;18.70;35.70
2749;DHT22;1382;52.142;11.618;2023-05-10T00:19:21;18.70;35.80
2749;DHT22;1382;52.142;11.618;2023-05-10T00:21:48;18.70;35.80
2749;DHT22;1382;52.142;11.618;2023-05-10T00:24:14;18.60;35.80
2749;DHT22;1382;52.142;11.618;2023-05-10T00:26:41;18.60;35.80
2749;DHT22;1382;52.142;11.618;2023-05-10T00:29:09;18.60;35.90
2749;DHT22;1382;52.142;11.618;2023-05-10T00:31:36;18.60;35.90
2749;DHT22;1382;52.142;11.618;2023-05-10T00:34:03;18.50;35.80
2749;DHT22;1382;52.142;11.618;2023-05-10T00:36:29;18.50;35.90
2749;DHT22;1382;52.142;11.618;2023-05-10T00:38:56;18.50;36.00
2749;DHT22;1382;52.142;11.618;2023-05-10T00:41:23;18.40;35.80
2749;DHT22;1382;52.142;11.618;2023-05-10T00:43:49;18.40;36.00
2749;DHT22;1382;52.142;11.618;2023-05-10T00:46:17;18.40;35.90
2749;DHT22;1382;52.142;11.618;2023-05-10T00:48:44;18.40;36.10
2749;DHT22;1382;52.142;11.618;2023-05-10T00:51:11;18.30;36.10
2749;DHT22;1382;52.142;11.618;2023-05-10T00:53:38;18.30;36.00
2749;DHT22;1382;52.142;11.618;2023-05-10T00:56:05;18.30;36.00
2749;DHT22;1382;52.142;11.618;2023-05-10T00:58:32;18.20;35.90
2749;DHT22;1382;52.142;11.618;2023-05-10T01:01:00;18.20;36.00
2749;DHT22;1382;52.142;11.618;2023-05-10T01:03:29;18.20;36.30
2749;DHT22;1382;52.142;11.618;2023-05-10T01:05:56;18.10;36.20
2749;DHT22;1382;52.142;11.618;2023-05-10T01:08:22;18.10;36.20
2749;DHT22;1382;52.142;11.618;2023-05-10T01:10:49;18.10;36.20
2749;DHT22;1382;52.142;11.618;2023-05-10T01:13:23;18.10;36.30
2749;DHT22;1382;52.142;11.618;2023-05-10T01:15:52;18.00;36.30
2749;DHT22;1382;52.142;11.618;2023-05-10T01:18:20;18.00;36.20
2749;DHT22;1382;52.142;11.618;2023-05-10T01:20:53;18.00;36.40
2749;DHT22;1382;52.142;11.618;2023-05-10T01:23:35;17.90;36.30
2749;DHT22;1382;52.142;11.618;2023-05-10T01:26:23;17.90;36.30
2749;DHT22;1382;52.142;11.618;2023-05-10T01:29:11;17.90;36.30
2749;DHT22;1382;52.142;11.618;2023-05-10T01:34:58;17.80;36.60
2749;DHT22;1382;52.142;11.618;2023-05-10T01:37:33;17.70;36.60
2749;DHT22;1382;52.142;11.618;2023-05-10T01:40:08;17.60;36.40
2749;DHT22;1382;52.142;11.618;2023-05-10T01:42:43;17.60;36.60
2749;DHT22;1382;52.142;11.618;2023-05-10T01:45:19;17.60;36.70
2749;DHT22;1382;52.142;11.618;2023-05-10T01:47:49;17.50;37.40
2749;DHT22;1382;52.142;11.618;2023-05-10T01:50:22;17.50;36.70
2749;DHT22;1382;52.142;11.618;2023-05-10T01:52:59;17.50;36.70
2749;DHT22;1382;52.142;11.618;2023-05-10T01:55:29;17.50;36.90
2749;DHT22;1382;52.142;11.618;2023-05-10T01:58:02;17.50;37.00
2749;DHT22;1382;52.142;11.618;2023-05-10T02:00:29;17.40;36.90
2749;DHT22;1382;52.142;11.618;2023-05-10T02:02:57;17.40;36.80
2749;DHT22;1382;52.142;11.618;2023-05-10T02:05:29;17.40;36.90
2749;DHT22;1382;52.142;11.618;2023-05-10T02:07:58;17.30;37.20
2749;DHT22;1382;52.142;11.618;2023-05-10T02:10:26;17.30;37.00
2749;DHT22;1382;52.142;11.618;2023-05-10T02:12:53;17.30;36.90
2749;DHT22;1382;52.142;11.618;2023-05-10T02:15:24;17.30;37.20
2749;DHT22;1382;52.142;11.618;2023-05-10T02:17:52;17.30;37.20
2749;DHT22;1382;52.142;11.618;2023-05-10T02:20:21;17.20;37.00
2749;DHT22;1382;52.142;11.618;2023-05-10T02:22:52;17.20;37.00
2749;DHT22;1382;52.142;11.618;2023-05-10T02:25:21;17.20;37.20
2749;DHT22;1382;52.142;11.618;2023-05-10T02:27:48;17.10;37.10
2749;DHT22;1382;52.142;11.618;2023-05-10T02:30:16;17.10;37.20
2749;DHT22;1382;52.142;11.618;2023-05-10T02:32:45;17.10;37.80
2749;DHT22;1382;52.142;11.618;2023-05-10T02:35:12;17.00;37.40
2749;DHT22;1382;52.142;11.618;2023-05-10T02:37:39;17.00;37.30
2749;DHT22;1382;52.142;11.618;2023-05-10T02:40:09;17.00;37.30
2749;DHT22;1382;52.142;11.618;2023-05-10T02:42:37;17.00;37.20
2749;DHT22;1382;52.142;11.618;2023-05-10T02:45:10;17.00;37.30
2749;DHT22;1382;52.142;11.618;2023-05-10T02:47:38;16.90;37.40
2749;DHT22;1382;52.142;11.618;2023-05-10T02:50:05;16.90;37.40
2749;DHT22;1382;52.142;11.618;2023-05-10T02:52:39;16.90;37.30
2749;DHT22;1382;52.142;11.618;2023-05-10T02:55:09;16.90;37.40
2749;DHT22;1382;52.142;11.618;2023-05-10T02:57:41;16.80;37.70
2749;DHT22;1382;52.142;11.618;2023-05-10T03:00:09;16.80;37.80
2749;DHT22;1382;52.142;11.618;2023-05-10T03:02:36;16.80;37.50
2749;DHT22;1382;52.142;11.618;2023-05-10T03:05:03;16.80;37.70
2749;DHT22;1382;52.142;11.618;2023-05-10T03:07:30;16.80;37.70
2749;DHT22;1382;52.142;11.618;2023-05-10T03:09:57;16.70;37.50
2749;DHT22;1382;52.142;11.618;2023-05-10T03:12:33;16.80;37.70
2749;DHT22;1382;52.142;11.618;2023-05-10T03:15:11;16.70;38.30
2749;DHT22;1382;52.142;11.618;2023-05-10T03:17:46;16.70;37.80
2749;DHT22;1382;52.142;11.618;2023-05-10T03:20:21;16.70;37.80
2749;DHT22;1382;52.142;11.618;2023-05-10T03:22:53;16.60;37.80
2749;DHT22;1382;52.142;11.618;2023-05-10T03:25:23;16.60;37.60
2749;DHT22;1382;52.142;11.618;2023-05-10T03:27:52;16.60;37.70
2749;DHT22;1382;52.142;11.618;2023-05-10T03:30:19;16.60;37.80
2749;DHT22;1382;52.142;11.618;2023-05-10T03:32:46;16.60;37.80
2749;DHT22;1382;52.142;11.618;2023-05-10T03:35:13;16.60;38.00
2749;DHT22;1382;52.142;11.618;2023-05-10T03:37:39;16.50;38.00
2749;DHT22;1382;52.142;11.618;2023-05-10T03:40:07;16.50;37.80
2749;DHT22;1382;52.142;11.618;2023-05-10T03:42:34;16.50;37.80
2749;DHT22;1382;52.142;11.618;2023-05-10T03:45:02;16.50;37.80
2749;DHT22;1382;52.142;11.618;2023-05-10T03:47:29;16.50;38.00
2749;DHT22;1382;52.142;11.618;2023-05-10T03:49:56;16.40;37.80
2749;DHT22;1382;52.142;11.618;2023-05-10T03:52:23;16.40;37.90
2749;DHT22;1382;52.142;11.618;2023-05-10T03:54:49;16.40;37.80
2749;DHT22;1382;52.142;11.618;2023-05-10T03:57:16;16.40;37.70
2749;DHT22;1382;52.142;11.618;2023-05-10T03:59:43;16.40;38.10
2749;DHT22;1382;52.142;11.618;2023-05-10T04:02:11;16.40;38.00
2749;DHT22;1382;52.142;11.618;2023-05-10T04:04:38;16.30;37.90
2749;DHT22;1382;52.142;11.618;2023-05-10T04:07:04;16.30;38.00
2749;DHT22;1382;52.142;11.618;2023-05-10T04:09:31;16.30;37.90
2749;DHT22;1382;52.142;11.618;2023-05-10T04:11:58;16.30;38.20
2749;DHT22;1382;52.142;11.618;2023-05-10T04:14:25;16.30;38.10
2749;DHT22;1382;52.142;11.618;2023-05-10T04:16:52;16.30;38.20
2749;DHT22;1382;52.142;11.618;2023-05-10T04:19:20;16.30;38.00
2749;DHT22;1382;52.142;11.618;2023-05-10T04:21:47;16.30;38.40
2749;DHT22;1382;52.142;11.618;2023-05-10T04:24:13;16.30;38.00
2749;DHT22;1382;52.142;11.618;2023-05-10T04:26:40;16.30;38.10
2749;DHT22;1382;52.142;11.618;2023-05-10T04:29:07;16.30;38.40
2749;DHT22;1382;52.142;11.618;2023-05-10T04:31:33;16.30;38.50
2749;DHT22;1382;52.142;11.618;2023-05-10T04:34:00;16.30;38.30
2749;DHT22;1382;52.142;11.618;2023-05-10T04:36:28;16.30;38.10
2749;DHT22;1382;52.142;11.618;2023-05-10T04:38:55;16.30;38.10
2749;DHT22;1382;52.142;11.618;2023-05-10T04:41:21;16.30;38.10
2749;DHT22;1382;52.142;11.618;2023-05-10T04:43:48;16.30;38.10
2749;DHT22;1382;52.142;11.618;2023-05-10T04:46:15;16.30;38.20
2749;DHT22;1382;52.142;11.618;2023-05-10T04:48:42;16.30;38.10
2749;DHT22;1382;52.142;11.618;2023-05-10T04:51:09;16.30;38.20
2749;DHT22;1382;52.142;11.618;2023-05-10T04:53:37;16.30;38.30
2749;DHT22;1382;52.142;11.618;2023-05-10T04:56:04;16.30;38.30
2749;DHT22;1382;52.142;11.618;2023-05-10T04:58:31;16.30;38.40
2749;DHT22;1382;52.142;11.618;2023-05-10T05:00:59;16.30;38.30
2749;DHT22;1382;52.142;11.618;2023-05-10T05:03:30;16.30;38.60
2749;DHT22;1382;52.142;11.618;2023-05-10T05:05:57;16.30;38.60
2749;DHT22;1382;52.142;11.618;2023-05-10T05:08:24;16.40;38.60
2749;DHT22;1382;52.142;11.618;2023-05-10T05:10:52;16.40;38.70
2749;DHT22;1382;52.142;11.618;2023-05-10T05:13:19;16.40;39.00
2749;DHT22;1382;52.142;11.618;2023-05-10T05:15:45;16.40;38.80
2749;DHT22;1382;52.142;11.618;2023-05-10T05:18:12;16.40;38.70
2749;DHT22;1382;52.142;11.618;2023-05-10T05:20:39;16.50;38.80
2749;DHT22;1382;52.142;11.618;2023-05-10T05:23:05;16.50;39.10
2749;DHT22;1382;52.142;11.618;2023-05-10T05:25:32;16.60;39.30
2749;DHT22;1382;52.142;11.618;2023-05-10T05:28:00;16.60;39.30
2749;DHT22;1382;52.142;11.618;2023-05-10T05:30:27;16.70;39.40
2749;DHT22;1382;52.142;11.618;2023-05-10T05:32:53;16.80;39.90
2749;DHT22;1382;52.142;11.618;2023-05-10T05:35:20;16.90;39.00
2749;DHT22;1382;52.142;11.618;2023-05-10T05:37:47;16.90;39.20
2749;DHT22;1382;52.142;11.618;2023-05-10T05:40:14;17.00;39.50
2749;DHT22;1382;52.142;11.618;2023-05-10T05:42:40;17.10;39.60
2749;DHT22;1382;52.142;11.618;2023-05-10T05:45:09;17.20;39.90
2749;DHT22;1382;52.142;11.618;2023-05-10T05:47:36;17.30;39.80
2749;DHT22;1382;52.142;11.618;2023-05-10T05:50:03;17.40;40.30
2749;DHT22;1382;52.142;11.618;2023-05-10T05:52:30;17.50;39.90
2749;DHT22;1382;52.142;11.618;2023-05-10T05:54:57;17.60;39.80
2749;DHT22;1382;52.142;11.618;2023-05-10T05:57:23;17.70;39.70
2749;DHT22;1382;52.142;11.618;2023-05-10T05:59:50;17.80;39.70
2749;DHT22;1382;52.142;11.618;2023-05-10T06:02:18;18.00;39.80
2749;DHT22;1382;52.142;11.618;2023-05-10T06:04:45;18.10;39.60
2749;DHT22;1382;52.142;11.618;2023-05-10T06:07:11;18.20;39.60
2749;DHT22;1382;52.142;11.618;2023-05-10T06:09:38;18.40;39.60
2749;DHT22;1382;52.142;11.618;2023-05-10T06:12:05;18.50;39.70
2749;DHT22;1382;52.142;11.618;2023-05-10T06:14:32;18.70;40.40
2749;DHT22;1382;52.142;11.618;2023-05-10T06:16:58;18.80;39.70
2749;DHT22;1382;52.142;11.618;2023-05-10T06:19:26;19.00;39.70
2749;DHT22;1382;52.142;11.618;2023-05-10T06:21:53;19.10;39.50
2749;DHT22;1382;52.142;11.618;2023-05-10T06:24:20;19.20;39.40
2749;DHT22;1382;52.142;11.618;2023-05-10T06:26:46;19.40;39.30
2749;DHT22;1382;52.142;11.618;2023-05-10T06:29:13;19.50;39.10
2749;DHT22;1382;52.142;11.618;2023-05-10T06:31:40;19.80;39.00
2749;DHT22;1382;52.142;11.618;2023-05-10T06:34:06;19.70;38.80
2749;DHT22;1382;52.142;11.618;2023-05-10T06:36:34;19.80;38.70
2749;DHT22;1382;52.142;11.618;2023-05-10T06:39:01;19.90;38.60
2749;DHT22;1382;52.142;11.618;2023-05-10T06:41:28;20.00;38.30
2749;DHT22;1382;52.142;11.618;2023-05-10T06:43:55;20.00;38.30
2749;DHT22;1382;52.142;11.618;2023-05-10T06:46:22;20.00;38.10
2749;DHT22;1382;52.142;11.618;2023-05-10T06:48:48;20.10;38.20
2749;DHT22;1382;52.142;11.618;2023-05-10T06:51:15;20.10;38.20
2749;DHT22;1382;52.142;11.618;2023-05-10T06:53:43;20.10;38.30
2749;DHT22;1382;52.142;11.618;2023-05-10T06:56:10;20.10;38.50
2749;DHT22;1382;52.142;11.618;2023-05-10T06:58:37;20.20;38.20
2749;DHT22;1382;52.142;11.618;2023-05-10T07:01:04;20.20;38.30
2749;DHT22;1382;52.142;11.618;2023-05-10T07:03:31;20.20;38.30
2749;DHT22;1382;52.142;11.618;2023-05-10T07:06:01;20.20;38.40
2749;DHT22;1382;52.142;11.618;2023-05-10T07:08:29;20.30;38.60
2749;DHT22;1382;52.142;11.618;2023-05-10T07:11:01;20.30;38.60
2749;DHT22;1382;52.142;11.618;2023-05-10T07:13:27;20.40;38.80
2749;DHT22;1382;52.142;11.618;2023-05-10T07:15:54;20.40;38.70
2749;DHT22;1382;52.142;11.618;2023-05-10T07:18:21;20.60;38.80
2749;DHT22;1382;52.142;11.618;2023-05-10T07:20:47;20.70;39.00
2749;DHT22;1382;52.142;11.618;2023-05-10T07:23:14;20.80;39.10
2749;DHT22;1382;52.142;11.618;2023-05-10T07:25:41;20.90;39.10
2749;DHT22;1382;52.142;11.618;2023-05-10T07:28:09;21.00;39.10
2749;DHT22;1382;52.142;11.618;2023-05-10T07:30:35;21.10;39.10
2749;DHT22;1382;52.142;11.618;2023-05-10T07:33:02;21.30;39.00
2749;DHT22;1382;52.142;11.618;2023-05-10T07:35:29;21.40;39.00
2749;DHT22;1382;52.142;11.618;2023-05-10T07:37:56;21.50;39.00
2749;DHT22;1382;52.142;11.618;2023-05-10T07:40:23;21.60;38.90
2749;DHT22;1382;52.142;11.618;2023-05-10T07:42:49;21.80;38.90
2749;DHT22;1382;52.142;11.618;2023-05-10T07:45:17;22.00;38.80
2749;DHT22;1382;52.142;11.618;2023-05-10T07:47:44;22.10;39.00
2749;DHT22;1382;52.142;11.618;2023-05-10T07:50:11;22.20;38.80
2749;DHT22;1382;52.142;11.618;2023-05-10T07:52:38;22.30;38.40
2749;DHT22;1382;52.142;11.618;2023-05-10T07:55:05;22.50;38.90
2749;DHT22;1382;52.142;11.618;2023-05-10T07:57:32;22.60;38.40
2749;DHT22;1382;52.142;11.618;2023-05-10T07:59:59;22.70;38.30
2749;DHT22;1382;52.142;11.618;2023-05-10T08:02:27;22.80;38.20
2749;DHT22;1382;52.142;11.618;2023-05-10T08:04:54;22.90;37.80
2749;DHT22;1382;52.142;11.618;2023-05-10T08:07:20;23.00;37.80
2749;DHT22;1382;52.142;11.618;2023-05-10T08:09:47;23.10;37.80
2749;DHT22;1382;52.142;11.618;2023-05-10T08:12:14;23.20;37.90
2749;DHT22;1382;52.142;11.618;2023-05-10T08:14:41;23.20;37.60
2749;DHT22;1382;52.142;11.618;2023-05-10T08:17:07;23.40;37.90
2749;DHT22;1382;52.142;11.618;2023-05-10T08:19:35;23.30;37.30
2749;DHT22;1382;52.142;11.618;2023-05-10T08:22:02;23.40;37.40
2749;DHT22;1382;52.142;11.618;2023-05-10T08:24:29;23.50;37.40
2749;DHT22;1382;52.142;11.618;2023-05-10T08:26:57;23.50;37.10
2749;DHT22;1382;52.142;11.618;2023-05-10T08:29:23;23.60;37.30
2749;DHT22;1382;52.142;11.618;2023-05-10T08:31:52;23.60;37.10
2749;DHT22;1382;52.142;11.618;2023-05-10T08:34:18;23.70;37.00
2749;DHT22;1382;52.142;11.618;2023-05-10T08:36:46;23.70;37.10
2749;DHT22;1382;52.142;11.618;2023-05-10T08:39:13;23.70;36.80
2749;DHT22;1382;52.142;11.618;2023-05-10T08:41:58;23.70;36.80
2749;DHT22;1382;52.142;11.618;2023-05-10T08:44:27;23.70;36.90
2749;DHT22;1382;52.142;11.618;2023-05-10T08:46:55;23.60;36.70
2749;DHT22;1382;52.142;11.618;2023-05-10T08:49:23;23.70;36.80
2749;DHT22;1382;52.142;11.618;2023-05-10T08:51:54;23.60;36.70
2749;DHT22;1382;52.142;11.618;2023-05-10T08:54:21;23.60;36.70
2749;DHT22;1382;52.142;11.618;2023-05-10T08:56:48;23.60;36.90
2749;DHT22;1382;52.142;11.618;2023-05-10T08:59:15;23.60;36.90
2749;DHT22;1382;52.142;11.618;2023-05-10T09:01:43;23.50;36.90
2749;DHT22;1382;52.142;11.618;2023-05-10T09:04:11;23.50;37.00
2749;DHT22;1382;52.142;11.618;2023-05-10T09:06:38;23.40;37.00
2749;DHT22;1382;52.142;11.618;2023-05-10T09:09:06;23.30;37.20
2749;DHT22;1382;52.142;11.618;2023-05-10T09:11:33;23.30;37.40
2749;DHT22;1382;52.142;11.618;2023-05-10T09:14:01;23.20;37.30
2749;DHT22;1382;52.142;11.618;2023-05-10T09:16:27;23.20;38.10
2749;DHT22;1382;52.142;11.618;2023-05-10T09:18:54;23.20;37.40
2749;DHT22;1382;52.142;11.618;2023-05-10T09:21:21;23.10;37.40
2749;DHT22;1382;52.142;11.618;2023-05-10T09:23:48;23.10;37.60
2749;DHT22;1382;52.142;11.618;2023-05-10T09:26:16;23.10;37.70
2749;DHT22;1382;52.142;11.618;2023-05-10T09:28:53;23.00;37.80
2749;DHT22;1382;52.142;11.618;2023-05-10T09:31:20;23.10;37.90
2749;DHT22;1382;52.142;11.618;2023-05-10T09:33:48;23.00;38.30
2749;DHT22;1382;52.142;11.618;2023-05-10T09:36:15;23.00;38.20
2749;DHT22;1382;52.142;11.618;2023-05-10T09:38:46;23.10;38.20
2749;DHT22;1382;52.142;11.618;2023-05-10T09:41:17;23.00;38.50
2749;DHT22;1382;52.142;11.618;2023-05-10T09:43:44;23.00;38.70
2749;DHT22;1382;52.142;11.618;2023-05-10T09:46:11;22.90;38.50
2749;DHT22;1382;52.142;11.618;2023-05-10T09:48:42;22.90;38.50
2749;DHT22;1382;52.142;11.618;2023-05-10T09:51:08;22.90;38.40
2749;DHT22;1382;52.142;11.618;2023-05-10T09:53:35;22.80;38.50
2749;DHT22;1382;52.142;11.618;2023-05-10T09:56:02;22.80;38.50
2749;DHT22;1382;52.142;11.618;2023-05-10T09:58:30;22.80;38.70
2749;DHT22;1382;52.142;11.618;2023-05-10T10:00:57;22.80;38.70
2749;DHT22;1382;52.142;11.618;2023-05-10T10:03:24;22.80;38.60
2749;DHT22;1382;52.142;11.618;2023-05-10T10:05:51;22.80;38.90
2749;DHT22;1382;52.142;11.618;2023-05-10T10:08:17;22.80;38.60
2749;DHT22;1382;52.142;11.618;2023-05-10T10:10:44;22.70;39.20
2749;DHT22;1382;52.142;11.618;2023-05-10T10:13:12;22.70;39.50
2749;DHT22;1382;52.142;11.618;2023-05-10T10:15:40;22.70;39.80
2749;DHT22;1382;52.142;11.618;2023-05-10T10:18:12;22.70;39.70
2749;DHT22;1382;52.142;11.618;2023-05-10T10:20:40;22.70;39.70
2749;DHT22;1382;52.142;11.618;2023-05-10T10:23:08;22.70;39.80
2749;DHT22;1382;52.142;11.618;2023-05-10T10:25:34;22.70;39.70
2749;DHT22;1382;52.142;11.618;2023-05-10T10:28:10;22.70;39.70
2749;DHT22;1382;52.142;11.618;2023-05-10T10:30:43;22.70;40.60
2749;DHT22;1382;52.142;11.618;2023-05-10T10:33:36;22.70;39.70
2749;DHT22;1382;52.142;11.618;2023-05-10T10:36:05;22.80;40.00
2749;DHT22;1382;52.142;11.618;2023-05-10T10:38:56;22.70;40.30
2749;DHT22;1382;52.142;11.618;2023-05-10T10:41:28;22.80;40.50
2749;DHT22;1382;52.142;11.618;2023-05-10T10:44:23;22.70;40.60
2749;DHT22;1382;52.142;11.618;2023-05-10T10:47:05;22.80;40.50
2749;DHT22;1382;52.142;11.618;2023-05-10T10:49:32;22.70;41.30
2749;DHT22;1382;52.142;11.618;2023-05-10T10:52:18;22.70;41.20
2749;DHT22;1382;52.142;11.618;2023-05-10T10:54:50;22.80;40.90
2749;DHT22;1382;52.142;11.618;2023-05-10T10:57:19;22.70;41.90
2749;DHT22;1382;52.142;11.618;2023-05-10T10:59:47;22.70;41.10
2749;DHT22;1382;52.142;11.618;2023-05-10T11:02:42;22.70;41.20
2749;DHT22;1382;52.142;11.618;2023-05-10T11:05:34;22.70;42.00
2749;DHT22;1382;52.142;11.618;2023-05-10T11:08:07;22.70;40.90
2749;DHT22;1382;52.142;11.618;2023-05-10T11:10:34;22.60;41.40
2749;DHT22;1382;52.142;11.618;2023-05-10T11:13:01;22.60;41.30
2749;DHT22;1382;52.142;11.618;2023-05-10T11:15:29;22.70;41.40
2749;DHT22;1382;52.142;11.618;2023-05-10T11:17:57;22.70;41.40
2749;DHT22;1382;52.142;11.618;2023-05-10T11:20:27;22.60;42.10
2749;DHT22;1382;52.142;11.618;2023-05-10T11:22:54;22.60;41.60
2749;DHT22;1382;52.142;11.618;2023-05-10T11:25:26;22.60;41.00
2749;DHT22;1382;52.142;11.618;2023-05-10T11:27:53;22.60;41.90
2749;DHT22;1382;52.142;11.618;2023-05-10T11:30:20;22.50;41.70
2749;DHT22;1382;52.142;11.618;2023-05-10T11:32:49;22.60;42.20
2749;DHT22;1382;52.142;11.618;2023-05-10T11:35:20;22.60;42.20
2749;DHT22;1382;52.142;11.618;2023-05-10T11:37:48;22.70;43.00
2749;DHT22;1382;52.142;11.618;2023-05-10T11:40:15;22.50;42.60
2749;DHT22;1382;52.142;11.618;2023-05-10T11:42:42;22.60;42.50
2749;DHT22;1382;52.142;11.618;2023-05-10T11:45:09;22.60;42.40
2749;DHT22;1382;52.142;11.618;2023-05-10T11:47:36;22.60;42.60
2749;DHT22;1382;52.142;11.618;2023-05-10T11:50:04;22.60;43.10
2749;DHT22;1382;52.142;11.618;2023-05-10T11:52:36;22.60;43.90
2749;DHT22;1382;52.142;11.618;2023-05-10T11:55:04;22.60;42.60
2749;DHT22;1382;52.142;11.618;2023-05-10T11:57:31;22.60;43.30
2749;DHT22;1382;52.142;11.618;2023-05-10T11:59:57;22.60;43.10
2749;DHT22;1382;52.142;11.618;2023-05-10T12:02:24;22.60;43.30
2749;DHT22;1382;52.142;11.618;2023-05-10T12:04:51;22.60;43.10
2749;DHT22;1382;52.142;11.618;2023-05-10T12:07:18;22.60;43.40
2749;DHT22;1382;52.142;11.618;2023-05-10T12:10:02;22.60;43.00
2749;DHT22;1382;52.142;11.618;2023-05-10T12:12:36;22.70;43.40
2749;DHT22;1382;52.142;11.618;2023-05-10T12:15:04;22.60;43.00
2749;DHT22;1382;52.142;11.618;2023-05-10T12:17:31;22.60;42.70
2749;DHT22;1382;52.142;11.618;2023-05-10T12:19:59;22.70;43.40
2749;DHT22;1382;52.142;11.618;2023-05-10T12:22:38;22.70;44.10
2749;DHT22;1382;52.142;11.618;2023-05-10T12:25:08;22.60;43.00
2749;DHT22;1382;52.142;11.618;2023-05-10T12:27:35;22.70;44.00
2749;DHT22;1382;52.142;11.618;2023-05-10T12:30:02;22.70;44.30
2749;DHT22;1382;52.142;11.618;2023-05-10T12:32:39;22.70;43.40
2749;DHT22;1382;52.142;11.618;2023-05-10T12:35:06;22.70;44.80
2749;DHT22;1382;52.142;11.618;2023-05-10T12:37:33;22.70;43.80
2749;DHT22;1382;52.142;11.618;2023-05-10T12:40:00;22.70;43.30
2749;DHT22;1382;52.142;11.618;2023-05-10T12:42:28;22.70;44.00
2749;DHT22;1382;52.142;11.618;2023-05-10T12:44:55;22.70;44.40
2749;DHT22;1382;52.142;11.618;2023-05-10T12:47:22;22.70;46.00
2749;DHT22;1382;52.142;11.618;2023-05-10T12:49:49;22.80;46.10
2749;DHT22;1382;52.142;11.618;2023-05-10T12:52:15;22.80;45.30
2749;DHT22;1382;52.142;11.618;2023-05-10T12:54:42;22.80;44.50
2749;DHT22;1382;52.142;11.618;2023-05-10T12:57:09;22.80;44.30
2749;DHT22;1382;52.142;11.618;2023-05-10T12:59:37;22.90;44.00
2749;DHT22;1382;52.142;11.618;2023-05-10T13:02:04;23.00;44.00
2749;DHT22;1382;52.142;11.618;2023-05-10T13:04:30;22.90;44.30
2749;DHT22;1382;52.142;11.618;2023-05-10T13:06:57;23.00;44.10
2749;DHT22;1382;52.142;11.618;2023-05-10T13:09:24;23.00;45.00
2749;DHT22;1382;52.142;11.618;2023-05-10T13:11:51;23.00;45.90
2749;DHT22;1382;52.142;11.618;2023-05-10T13:14:18;23.00;46.40
2749;DHT22;1382;52.142;11.618;2023-05-10T13:16:46;23.00;45.30
2749;DHT22;1382;52.142;11.618;2023-05-10T13:19:12;23.00;45.90
2749;DHT22;1382;52.142;11.618;2023-05-10T13:21:39;23.00;44.90
2749;DHT22;1382;52.142;11.618;2023-05-10T13:24:06;22.90;45.10
2749;DHT22;1382;52.142;11.618;2023-05-10T13:26:33;22.90;45.60
2749;DHT22;1382;52.142;11.618;2023-05-10T13:29:00;22.80;45.60
2749;DHT22;1382;52.142;11.618;2023-05-10T13:31:27;22.80;45.60
2749;DHT22;1382;52.142;11.618;2023-05-10T13:33:55;22.70;45.50
2749;DHT22;1382;52.142;11.618;2023-05-10T13:36:22;22.80;45.90
2749;DHT22;1382;52.142;11.618;2023-05-10T13:38:48;22.70;45.80
2749;DHT22;1382;52.142;11.618;2023-05-10T13:41:15;22.70;45.60
2749;DHT22;1382;52.142;11.618;2023-05-10T13:43:42;22.60;46.00
2749;DHT22;1382;52.142;11.618;2023-05-10T13:46:08;22.70;47.40
2749;DHT22;1382;52.142;11.618;2023-05-10T13:48:35;22.60;48.10
2749;DHT22;1382;52.142;11.618;2023-05-10T13:51:05;22.60;47.40
2749;DHT22;1382;52.142;11.618;2023-05-10T13:53:32;22.60;47.90
2749;DHT22;1382;52.142;11.618;2023-05-10T13:55:59;22.70;48.50
2749;DHT22;1382;52.142;11.618;2023-05-10T13:58:25;22.70;49.20
2749;DHT22;1382;52.142;11.618;2023-05-10T14:00:52;22.70;49.00
2749;DHT22;1382;52.142;11.618;2023-05-10T14:03:19;22.70;49.10
2749;DHT22;1382;52.142;11.618;2023-05-10T14:05:46;22.80;49.00
2749;DHT22;1382;52.142;11.618;2023-05-10T14:08:14;22.80;48.90
2749;DHT22;1382;52.142;11.618;2023-05-10T14:10:40;22.80;49.00
2749;DHT22;1382;52.142;11.618;2023-05-10T14:13:07;22.90;48.80
2749;DHT22;1382;52.142;11.618;2023-05-10T14:15:34;22.90;48.30
2749;DHT22;1382;52.142;11.618;2023-05-10T14:18:00;23.00;48.40
2749;DHT22;1382;52.142;11.618;2023-05-10T14:20:27;23.00;48.90
2749;DHT22;1382;52.142;11.618;2023-05-10T14:22:54;23.00;48.10
2749;DHT22;1382;52.142;11.618;2023-05-10T14:25:23;23.10;47.90
2749;DHT22;1382;52.142;11.618;2023-05-10T14:27:49;23.20;48.20
2749;DHT22;1382;52.142;11.618;2023-05-10T14:30:16;23.20;47.40
2749;DHT22;1382;52.142;11.618;2023-05-10T14:32:43;23.20;46.40
2749;DHT22;1382;52.142;11.618;2023-05-10T14:35:09;23.30;46.30
2749;DHT22;1382;52.142;11.618;2023-05-10T14:37:39;23.30;46.70
2749;DHT22;1382;52.142;11.618;2023-05-10T14:40:08;23.30;46.40
2749;DHT22;1382;52.142;11.618;2023-05-10T14:42:36;23.40;46.00
2749;DHT22;1382;52.142;11.618;2023-05-10T14:45:03;23.50;46.00
2749;DHT22;1382;52.142;11.618;2023-05-10T14:47:30;23.50;45.70
2749;DHT22;1382;52.142;11.618;2023-05-10T14:49:57;23.60;45.20
2749;DHT22;1382;52.142;11.618;2023-05-10T14:52:23;23.70;45.40
2749;DHT22;1382;52.142;11.618;2023-05-10T14:54:50;23.70;45.80
2749;DHT22;1382;52.142;11.618;2023-05-10T14:57:17;23.70;45.50
2749;DHT22;1382;52.142;11.618;2023-05-10T14:59:45;23.70;45.30
2749;DHT22;1382;52.142;11.618;2023-05-10T15:02:12;23.80;45.10
2749;DHT22;1382;52.142;11.618;2023-05-10T15:04:39;23.80;44.60
2749;DHT22;1382;52.142;11.618;2023-05-10T15:07:06;23.80;44.90
2749;DHT22;1382;52.142;11.618;2023-05-10T15:09:33;23.90;44.40
2749;DHT22;1382;52.142;11.618;2023-05-10T15:11:59;23.90;44.60
2749;DHT22;1382;52.142;11.618;2023-05-10T15:14:26;23.90;43.90
2749;DHT22;1382;52.142;11.618;2023-05-10T15:16:54;23.90;44.50
2749;DHT22;1382;52.142;11.618;2023-05-10T15:19:21;24.00;44.30
2749;DHT22;1382;52.142;11.618;2023-05-10T15:21:47;24.00;43.60
2749;DHT22;1382;52.142;11.618;2023-05-10T15:24:14;24.00;44.20
2749;DHT22;1382;52.142;11.618;2023-05-10T15:26:41;24.10;45.30
2749;DHT22;1382;52.142;11.618;2023-05-10T15:29:07;24.10;44.50
2749;DHT22;1382;52.142;11.618;2023-05-10T15:31:34;24.10;44.10
2749;DHT22;1382;52.142;11.618;2023-05-10T15:34:03;24.10;44.60
2749;DHT22;1382;52.142;11.618;2023-05-10T15:36:31;24.10;45.00
2749;DHT22;1382;52.142;11.618;2023-05-10T15:38:57;24.10;44.60
2749;DHT22;1382;52.142;11.618;2023-05-10T15:41:24;24.10;45.00
2749;DHT22;1382;52.142;11.618;2023-05-10T15:43:51;24.10;45.30
2749;DHT22;1382;52.142;11.618;2023-05-10T15:46:17;24.10;45.20
2749;DHT22;1382;52.142;11.618;2023-05-10T15:48:44;24.10;45.10
2749;DHT22;1382;52.142;11.618;2023-05-10T15:51:12;24.20;45.70
2749;DHT22;1382;52.142;11.618;2023-05-10T15:53:39;24.10;45.10
2749;DHT22;1382;52.142;11.618;2023-05-10T15:56:15;24.10;45.20